Time;durP1;ratioP1;P1;durP2;ratioP2;P2;SDS_P1;SDS_P2;PMS_P1;PMS_P2;Temp;Humidity;BMP_temperature;BMP_pressure;BME280_temperature;BME280_humidity;BME280_pressure;Samples;Min_cycle;Max_cycle;Signal;HPM_P1;HPM_P2
2022/09/02 00:01:44;;;;;;;5.80;4.22;;;;;;;20.44;73.12;93183.97;5031118;28;20029;-58
2022/09/02 00:04:20;;;;;;;6.80;5.43;;;;;;;20.40;73.66;93186.53;5031281;28;20021;-59
2022/09/02 00:06:47;;;;;;;7.53;5.68;;;;;;;20.38;74.06;93178.75;5029978;28;20502;-57
2022/09/02 00:09:14;;;;;;;6.30;4.72;;;;;;;20.38;74.11;93186.41;5030637;28;20049;-60
2022/09/02 00:11:41;;;;;;;6.28;4.85;;;;;;;20.35;74.04;93176.47;5031144;28;20033;-51
2022/09/02 00:14:11;;;;;;;6.80;4.95;;;;;;;20.28;74.51;93175.41;5031030;28;20029;-50
2022/09/02 00:16:37;;;;;;;9.95;6.18;;;;;;;20.16;74.67;93157.88;5030611;28;20025;-53
2022/09/02 00:19:03;;;;;;;8.95;4.72;;;;;;;20.16;74.79;93169.09;5031049;28;20115;-53
2022/09/02 00:21:31;;;;;;;5.30;4.80;;;;;;;20.10;75.08;93159.63;5030704;28;20021;-49
2022/09/02 00:23:57;;;;;;;5.13;4.22;;;;;;;20.00;75.29;93159.81;5030990;28;20155;-50
2022/09/02 00:26:23;;;;;;;4.55;3.67;;;;;;;19.96;75.60;93168.00;5030569;28;20615;-49
2022/09/02 00:28:49;;;;;;;6.10;3.78;;;;;;;20.05;74.92;93160.78;5030854;28;20082;-49
2022/09/02 00:31:14;;;;;;;4.78;4.13;;;;;;;20.07;74.59;93158.09;5030773;28;20017;-49
2022/09/02 00:33:40;;;;;;;6.65;4.07;;;;;;;19.70;75.36;93126.63;5030600;28;20441;-49
2022/09/02 00:36:06;;;;;;;4.55;4.15;;;;;;;19.95;74.71;93149.72;5030443;28;20021;-49
2022/09/02 00:38:33;;;;;;;5.20;4.47;;;;;;;19.90;74.94;93150.88;5030683;28;20014;-50
2022/09/02 00:41:00;;;;;;;5.75;4.93;;;;;;;19.97;74.79;93154.72;5030682;28;20114;-46
2022/09/02 00:43:36;;;;;;;5.05;4.18;;;;;;;20.09;73.82;93158.19;5030604;28;20032;-47
2022/09/02 00:46:02;;;;;;;6.25;4.80;;;;;;;20.05;73.45;93166.38;5030697;28;20029;-46
2022/09/02 00:48:28;;;;;;;5.95;4.65;;;;;;;20.06;73.41;93162.94;5030620;28;20017;-48
2022/09/02 00:50:53;;;;;;;6.85;5.13;;;;;;;20.01;73.11;93154.97;5029366;28;20040;-48
2022/09/02 00:53:19;;;;;;;5.63;4.03;;;;;;;20.02;72.78;93157.13;5030233;28;20432;-48
2022/09/02 00:55:48;;;;;;;6.55;4.63;;;;;;;19.90;73.03;93150.88;5030441;28;20116;-48
2022/09/02 00:58:19;;;;;;;6.43;5.30;;;;;;;19.99;72.78;93157.66;5023556;28;20034;-48
2022/09/02 01:00:46;;;;;;;6.50;5.75;;;;;;;20.00;73.13;93159.09;5009478;28;20041;-48
2022/09/02 01:03:15;;;;;;;6.55;5.15;;;;;;;20.01;72.68;93160.56;5024576;28;20025;-47
2022/09/02 01:05:44;;;;;;;6.88;5.00;;;;;;;20.00;72.53;93165.44;5029550;28;20540;-47
2022/09/02 01:08:15;;;;;;;5.38;4.25;;;;;;;20.04;72.58;93157.25;5027855;28;20047;-48
2022/09/02 01:10:42;;;;;;;5.60;4.88;;;;;;;19.99;73.36;93152.75;5028961;28;20499;-49
2022/09/02 01:13:11;;;;;;;4.57;3.92;;;;;;;19.87;73.57;93154.91;5030001;28;20032;-48
2022/09/02 01:15:42;;;;;;;;;;;;;;;19.84;73.84;93153.31;5030865;28;20099;-48
2022/09/02 01:18:12;;;;;;;6.75;4.30;;;;;;;19.81;74.06;93148.25;5030071;28;20000;-48
2022/09/02 01:20:37;;;;;;;5.15;4.35;;;;;;;19.78;74.34;93155.06;5033986;28;20025;-48
2022/09/02 01:23:03;;;;;;;4.38;3.75;;;;;;;19.84;73.86;93161.03;5033951;28;20021;-48
2022/09/02 01:25:31;;;;;;;8.15;5.05;;;;;;;19.83;73.86;93163.09;5034209;28;20029;-47
2022/09/02 01:28:06;;;;;;;5.88;4.00;;;;;;;19.87;73.78;93162.56;5033846;28;20388;-47
2022/09/02 01:30:32;;;;;;;3.78;3.42;;;;;;;19.91;73.78;93174.75;5033908;28;20056;-47
2022/09/02 01:32:58;;;;;;;4.82;3.92;;;;;;;19.89;73.78;93169.03;5033779;28;20116;-47
2022/09/02 01:35:24;;;;;;;3.30;2.45;;;;;;;19.83;74.42;93174.28;5033776;28;20101;-47
2022/09/02 01:37:56;;;;;;;3.33;2.45;;;;;;;19.84;74.32;93181.34;5033892;28;20034;-46
2022/09/02 01:40:23;;;;;;;3.10;2.33;;;;;;;19.71;74.99;93184.09;5033672;28;20041;-47
2022/09/02 01:42:54;;;;;;;2.85;2.03;;;;;;;19.77;74.75;93182.38;5033881;28;20025;-51
2022/09/02 01:45:19;;;;;;;2.45;1.90;;;;;;;19.81;74.47;93187.47;5032736;28;20025;-53
2022/09/02 01:47:45;;;;;;;3.03;2.58;;;;;;;19.66;75.17;93189.44;5033379;28;20039;-51
2022/09/02 01:50:10;;;;;;;2.47;2.28;;;;;;;19.71;75.11;93186.91;5033847;28;20032;-51
2022/09/02 01:52:36;;;;;;;3.10;2.60;;;;;;;19.64;75.71;93183.75;5033343;28;20030;-50
2022/09/02 01:55:02;;;;;;;3.33;2.20;;;;;;;19.64;75.93;93178.13;5023729;28;20038;-52
2022/09/02 01:57:28;;;;;;;2.40;2.13;;;;;;;19.68;75.87;93177.66;5013775;28;20406;-54
2022/09/02 01:59:54;;;;;;;2.17;1.95;;;;;;;19.76;75.33;93169.69;5013845;28;20053;-51
2022/09/02 02:02:20;;;;;;;2.50;2.15;;;;;;;19.79;75.23;93159.34;5021458;28;20049;-52
2022/09/02 02:04:46;;;;;;;2.60;2.28;;;;;;;19.66;75.56;93143.94;5033473;28;20014;-55
2022/09/02 02:07:14;;;;;;;2.47;2.28;;;;;;;19.78;75.81;93160.66;5032706;28;20017;-55
2022/09/02 02:09:40;;;;;;;2.53;2.33;;;;;;;19.60;76.97;93163.91;5033153;28;20573;-49
2022/09/02 02:12:06;;;;;;;3.30;2.97;;;;;;;19.68;76.94;93169.25;5033402;28;20053;-48
2022/09/02 02:14:32;;;;;;;3.58;2.72;;;;;;;19.70;76.58;93154.63;5033110;28;20558;-49
2022/09/02 02:16:57;;;;;;;3.78;3.38;;;;;;;19.63;77.45;93157.09;5033067;28;20109;-50
2022/09/02 02:19:23;;;;;;;4.38;3.45;;;;;;;19.68;77.13;93163.66;5033355;28;20033;-49
2022/09/02 02:21:48;;;;;;;4.75;3.67;;;;;;;19.63;78.03;93161.97;5033200;28;20478;-48
2022/09/02 02:24:14;;;;;;;4.82;3.75;;;;;;;19.52;79.06;93157.88;5032827;28;20029;-50
2022/09/02 02:26:40;;;;;;;4.38;3.38;;;;;;;19.36;80.62;93162.53;5032945;28;20033;-50
2022/09/02 02:29:06;;;;;;;4.13;3.72;;;;;;;19.29;81.21;93162.78;5030852;28;20029;-53
2022/09/02 02:31:31;;;;;;;3.80;3.42;;;;;;;19.40;80.93;93162.06;5031875;28;20021;-51
2022/09/02 02:33:58;;;;;;;4.28;3.67;;;;;;;19.46;80.67;93160.34;5031250;28;20017;-51
2022/09/02 02:36:24;;;;;;;4.35;3.05;;;;;;;19.35;81.75;93154.75;5031361;28;20014;-52
2022/09/02 02:38:50;;;;;;;5.43;3.80;;;;;;;19.31;81.70;93143.31;5031824;28;20098;-50
2022/09/02 02:41:15;;;;;;;4.43;3.30;;;;;;;19.35;82.39;93157.56;5031151;28;20466;-50
2022/09/02 02:43:41;;;;;;;4.68;3.88;;;;;;;19.31;83.34;93155.25;5030876;28;20021;-54
2022/09/02 02:46:07;;;;;;;4.40;3.75;;;;;;;19.24;83.94;93147.84;5031001;28;20032;-52
2022/09/02 02:48:34;;;;;;;3.92;2.80;;;;;;;19.28;83.88;93145.25;5031066;28;20024;-48
2022/09/02 02:50:59;;;;;;;4.97;3.38;;;;;;;19.04;85.24;93155.06;5030753;28;20021;-55
2022/09/02 02:53:28;;;;;;;5.55;3.55;;;;;;;19.16;85.11;93152.25;5030909;28;20026;-54
2022/09/02 02:55:54;;;;;;;3.42;3.13;;;;;;;19.09;85.69;93156.75;5032319;28;20029;-52
2022/09/02 02:58:19;;;;;;;4.20;3.80;;;;;;;18.75;89.84;93166.66;5032015;28;20036;-57
2022/09/02 03:00:45;;;;;;;6.75;3.78;;;;;;;18.50;94.19;93163.03;5032456;28;20053;-54
2022/09/02 03:03:11;;;;;;;2.92;2.22;;;;;;;18.24;97.32;93141.84;5017097;28;20365;-58
2022/09/02 03:05:37;;;;;;;3.17;3.08;;;;;;;18.39;98.21;93164.44;5020445;28;20025;-55
2022/09/02 03:08:08;;;;;;;1.58;1.58;;;;;;;18.36;99.35;93156.56;5032008;28;20048;-58
2022/09/02 03:10:34;;;;;;;0.90;0.90;;;;;;;18.37;98.92;93152.41;5032042;28;20765;-58
2022/09/02 03:13:00;;;;;;;32.30;1.52;;;;;;;18.49;97.90;93144.81;5031977;28;20112;-51
2022/09/02 03:15:26;;;;;;;1.77;1.67;;;;;;;18.23;98.25;93112.44;5032157;28;20415;-44
2022/09/02 03:17:53;;;;;;;0.98;0.98;;;;;;;18.27;97.07;93149.75;5031964;28;20029;-38
2022/09/02 03:20:19;;;;;;;2.15;2.05;;;;;;;17.94;96.91;93152.63;5032010;28;20049;-39
2022/09/02 03:22:46;;;;;;;5.97;2.50;;;;;;;17.71;99.09;93132.28;5030795;28;20530;-40
2022/09/02 03:25:13;;;;;;;10.20;2.15;;;;;;;17.87;100.00;93153.56;5031701;28;20053;-41
2022/09/02 03:27:40;;;;;;;5.00;1.58;;;;;;;17.75;100.00;93144.44;5031920;28;20022;-41
2022/09/02 03:30:08;;;;;;;0.73;0.73;;;;;;;17.77;100.00;93152.94;5031538;28;20061;-41
2022/09/02 03:32:34;;;;;;;1.15;0.82;;;;;;;17.88;100.00;93151.53;5031868;28;20032;-41
2022/09/02 03:35:05;;;;;;;1.48;1.40;;;;;;;17.84;100.00;93171.56;5031131;28;20029;-41
2022/09/02 03:37:31;;;;;;;1.60;0.60;;;;;;;17.90;100.00;93173.97;5031782;28;20029;-42
2022/09/02 03:39:56;;;;;;;0.30;0.30;;;;;;;17.83;100.00;93178.47;5031683;28;20567;-42
2022/09/02 03:42:22;;;;;;;1.67;1.58;;;;;;;17.90;100.00;93180.31;5030885;28;20040;-41
2022/09/02 03:44:47;;;;;;;0.70;0.70;;;;;;;17.96;100.00;93188.31;5031584;28;20036;-41
2022/09/02 03:47:14;;;;;;;1.05;1.05;;;;;;;17.96;100.00;93174.34;5031317;28;20565;-42
2022/09/02 03:49:39;;;;;;;1.65;1.30;;;;;;;18.02;100.00;93185.91;5029746;28;20041;-42
2022/09/02 03:52:05;;;;;;;0.52;0.52;;;;;;;18.06;100.00;93175.00;5029506;28;20017;-42
2022/09/02 03:54:31;;;;;;;1.00;0.52;;;;;;;17.96;99.16;93189.06;5029672;28;20187;-42
2022/09/02 03:56:57;;;;;;;4.15;2.40;;;;;;;17.90;99.29;93188.69;5029361;28;20061;-42
2022/09/02 03:59:23;;;;;;;1.05;0.57;;;;;;;17.94;100.00;93191.00;5029766;28;20033;-42
2022/09/02 04:01:50;;;;;;;0.65;0.65;;;;;;;18.00;99.82;93194.16;5025574;28;20088;-43
2022/09/02 04:04:15;;;;;;;0.40;0.40;;;;;;;18.01;100.00;93190.03;5010930;28;20030;-44
2022/09/02 04:06:41;;;;;;;2.47;2.30;;;;;;;17.95;100.00;93190.38;5024229;28;20103;-44
2022/09/02 04:09:06;;;;;;;0.70;0.70;;;;;;;18.00;100.00;93205.34;5030637;28;20045;-43
2022/09/02 04:11:32;;;;;;;5.18;2.65;;;;;;;17.96;100.00;93202.28;5030926;28;20036;-44
2022/09/02 04:13:57;;;;;;;0.20;0.20;;;;;;;17.98;100.00;93203.16;5030872;28;20388;-43
2022/09/02 04:16:30;;;;;;;0.55;0.55;;;;;;;18.01;100.00;93199.16;5030440;28;20029;-45
2022/09/02 04:18:57;;;;;;;1.30;1.20;;;;;;;18.08;100.00;93211.44;5030717;28;20025;-43
2022/09/02 04:21:23;;;;;;;6.57;3.60;;;;;;;18.05;100.00;93207.78;5030683;28;20414;-41
2022/09/02 04:23:51;;;;;;;0.32;0.32;;;;;;;18.11;100.00;93210.97;5030952;28;20029;-43
2022/09/02 04:26:17;;;;;;;0.93;0.93;;;;;;;18.15;100.00;93211.22;5030654;28;20041;-44
2022/09/02 04:28:43;;;;;;;0.55;0.55;;;;;;;18.16;100.00;93206.34;5030894;28;20029;-46
2022/09/02 04:31:11;;;;;;;3.85;3.30;;;;;;;18.24;100.00;93200.53;5030543;28;20029;-44
2022/09/02 04:33:37;;;;;;;0.20;0.20;;;;;;;18.30;100.00;93210.00;5030412;28;20083;-48
2022/09/02 04:36:05;;;;;;;0.68;0.68;;;;;;;18.32;99.25;93206.63;5030656;28;20037;-45
2022/09/02 04:38:31;;;;;;;2.20;1.65;;;;;;;18.24;98.58;93203.31;5030388;28;20029;-49
2022/09/02 04:40:57;;;;;;;0.82;0.82;;;;;;;18.18;99.28;93217.66;5030561;28;20037;-45
2022/09/02 04:43:23;;;;;;;0.57;0.57;;;;;;;18.20;99.75;93217.78;5024141;28;20037;-44
2022/09/02 04:45:49;;;;;;;0.85;0.85;;;;;;;18.23;99.76;93218.63;5010612;28;20514;-45
2022/09/02 04:48:15;;;;;;;1.33;1.23;;;;;;;18.18;100.00;93210.00;5010880;28;20018;-46
2022/09/02 04:50:41;;;;;;;0.10;0.10;;;;;;;18.20;99.98;93206.59;5010874;28;20033;-46
2022/09/02 04:53:07;;;;;;;0.20;0.20;;;;;;;18.23;99.69;93210.25;5010675;28;20081;-45
2022/09/02 04:55:33;;;;;;;0.20;0.20;;;;;;;18.36;100.00;93204.81;5010898;28;20034;-48
2022/09/02 04:57:59;;;;;;;1.75;1.58;;;;;;;18.37;100.00;93208.31;5010560;28;20025;-47
2022/09/02 05:00:24;;;;;;;1.20;1.20;;;;;;;18.44;100.00;93207.34;5010747;28;20395;-47
2022/09/02 05:02:52;;;;;;;0.50;0.50;;;;;;;18.50;99.28;93196.56;5022820;28;20391;-47
2022/09/02 05:05:17;;;;;;;0.40;0.40;;;;;;;18.48;98.38;93196.44;5028378;28;20034;-48
2022/09/02 05:07:43;;;;;;;1.38;1.38;;;;;;;18.49;98.59;93203.50;5011555;28;20053;-48
2022/09/02 05:10:08;;;;;;;0.30;0.30;;;;;;;18.55;99.08;93212.25;5029648;28;20033;-47
2022/09/02 05:12:35;;;;;;;0.20;0.20;;;;;;;18.49;99.18;93211.91;5031159;28;20036;-48
2022/09/02 05:15:01;;;;;;;0.70;0.70;;;;;;;18.55;99.54;93215.78;5019063;28;20034;-45
2022/09/02 05:17:28;;;;;;;0.50;0.50;;;;;;;18.55;99.79;93212.25;5029530;28;20037;-47
2022/09/02 05:19:54;;;;;;;0.82;0.82;;;;;;;18.60;100.00;93216.78;5029651;28;20106;-48
2022/09/02 05:22:19;;;;;;;0.20;0.20;;;;;;;18.62;100.00;93208.50;5026652;28;20499;-46
2022/09/02 05:24:45;;;;;;;1.30;1.30;;;;;;;18.64;100.00;93217.00;5029529;28;20391;-46
2022/09/02 05:27:14;;;;;;;0.30;0.30;;;;;;;18.63;100.00;93207.16;5029321;28;20032;-50
2022/09/02 05:29:39;;;;;;;1.88;1.77;;;;;;;18.61;100.00;93218.22;5028436;28;20052;-48
2022/09/02 05:32:06;;;;;;;0.35;0.35;;;;;;;18.60;100.00;93222.38;5029432;28;20407;-48
2022/09/02 05:34:33;;;;;;;0.47;0.47;;;;;;;18.62;100.00;93217.63;5029075;28;20413;-47
2022/09/02 05:36:58;;;;;;;0.22;0.22;;;;;;;18.66;99.76;93222.72;5027591;28;20025;-46
2022/09/02 05:39:24;;;;;;;0.25;0.25;;;;;;;18.69;99.46;93215.94;5028257;28;20090;-49
2022/09/02 05:41:49;;;;;;;1.70;1.60;;;;;;;18.67;99.85;93224.91;5028328;28;20478;-47
2022/09/02 05:44:15;;;;;;;6.95;6.30;;;;;;;18.66;100.00;93219.94;5028483;28;20025;-47
2022/09/02 05:46:40;;;;;;;1.08;1.02;;;;;;;18.70;100.00;93225.75;5029859;28;20495;-48
2022/09/02 05:49:06;;;;;;;0.47;0.35;;;;;;;18.73;99.77;93224.56;5026120;28;20491;-46
2022/09/02 05:51:52;;;;;;;1.58;1.48;;;;;;;18.70;99.81;93229.28;5009658;28;20415;-50
2022/09/02 05:54:27;;;;;;;0.73;0.73;;;;;;;18.79;98.49;93230.50;5010010;28;20034;-48
2022/09/02 05:56:54;;;;;;;0.40;0.40;;;;;;;18.78;97.78;93223.44;5009696;28;20040;-46
2022/09/02 05:59:21;;;;;;;1.58;1.48;;;;;;;18.83;97.24;93234.28;5010100;28;20416;-47
2022/09/02 06:01:47;;;;;;;1.83;1.70;;;;;;;18.83;97.22;93225.16;5013268;28;20478;-49
2022/09/02 06:04:13;;;;;;;2.28;2.17;;;;;;;18.77;97.11;93227.59;5029786;28;20045;-46
2022/09/02 06:06:40;;;;;;;0.20;0.20;;;;;;;18.72;97.67;93223.09;5033089;28;20397;-48
2022/09/02 06:09:08;;;;;;;1.10;1.10;;;;;;;18.77;97.51;93222.75;5032830;28;20060;-48
2022/09/02 06:11:38;;;;;;;2.95;1.25;;;;;;;18.84;96.79;93221.75;5033016;28;20036;-47
2022/09/02 06:14:06;;;;;;;0.52;0.52;;;;;;;18.84;97.00;93218.94;5032513;28;20033;-48
2022/09/02 06:16:32;;;;;;;0.22;0.22;;;;;;;18.86;97.58;93218.34;5024802;28;20034;-49
2022/09/02 06:18:58;;;;;;;1.35;0.95;;;;;;;18.84;97.61;93232.22;5031551;28;20180;-49
2022/09/02 06:21:23;;;;;;;0.95;0.95;;;;;;;18.86;97.71;93223.94;5031203;28;20031;-46
2022/09/02 06:23:49;;;;;;;0.60;0.60;;;;;;;18.89;97.61;93222.72;5031473;28;20491;-47
2022/09/02 06:26:16;;;;;;;0.80;0.75;;;;;;;18.95;97.15;93225.88;5030403;28;20025;-45
2022/09/02 06:28:42;;;;;;;3.72;1.92;;;;;;;18.94;97.43;93224.41;5029089;28;20506;-47
2022/09/02 06:31:16;;;;;;;0.98;0.93;;;;;;;19.01;97.65;93223.44;5024342;28;20101;-48
2022/09/02 06:33:43;;;;;;;0.93;0.93;;;;;;;19.05;96.18;93223.69;5029518;28;20691;-46
2022/09/02 06:36:11;;;;;;;1.13;1.08;;;;;;;19.05;94.96;93226.47;5027485;28;20541;-47
2022/09/02 06:38:38;;;;;;;0.60;0.60;;;;;;;19.14;94.48;93230.50;5029251;28;20060;-47
2022/09/02 13:08:53;;;;;;;6.40;5.80;;;;;;;24.10;57.06;93194.91;5128048;27;20999;-57
2022/09/02 13:11:30;;;;;;;9.93;6.22;;;;;;;23.62;58.85;93199.25;5128107;27;20038;-58
2022/09/02 13:14:29;;;;;;;8.38;6.32;;;;;;;23.32;59.32;93193.00;5127721;27;20049;-56
2022/09/02 13:17:11;;;;;;;6.90;6.20;;;;;;;23.19;61.31;93193.16;5121126;27;20536;-57
2022/09/02 13:19:36;;;;;;;8.95;7.00;;;;;;;22.93;65.42;93200.44;5105653;28;20070;-59
2022/09/02 13:22:12;;;;;;;11.77;7.05;;;;;;;22.37;69.46;93192.94;5107799;28;20110;-60
2022/09/02 13:24:59;;;;;;;7.18;5.88;;;;;;;21.84;70.74;93196.09;5106974;28;20102;-60
2022/09/02 13:27:43;;;;;;;9.35;6.53;;;;;;;21.38;74.80;93201.44;5103787;28;20082;-59
2022/09/02 13:30:14;;;;;;;7.72;6.10;;;;;;;21.06;77.04;93206.91;5105077;28;20028;-60
2022/09/02 13:32:40;;;;;;;7.88;5.43;;;;;;;20.70;78.83;93212.66;5121750;28;20027;-58
2022/09/02 13:35:10;;;;;;;6.90;6.10;;;;;;;20.60;81.20;93214.91;5123330;27;20452;-61
2022/09/02 13:37:38;;;;;;;8.02;6.35;;;;;;;20.34;83.11;93200.22;5124002;28;20579;-58
2022/09/02 13:40:16;;;;;;;7.40;6.13;;;;;;;20.29;86.11;93215.38;5124139;28;20139;-60
2022/09/02 13:42:47;;;;;;;9.40;7.35;;;;;;;20.18;87.15;93213.34;5125511;27;20412;-60
2022/09/02 13:45:15;;;;;;;9.80;7.30;;;;;;;20.07;86.37;93217.69;5125725;27;20015;-60
2022/09/02 13:47:43;;;;;;;12.80;7.53;;;;;;;20.02;87.11;93220.84;5115971;27;20068;-60
2022/09/02 13:50:09;;;;;;;8.60;7.13;;;;;;;19.91;88.76;93205.56;5105535;28;20449;-59
2022/09/02 13:52:36;;;;;;;10.88;9.25;;;;;;;19.94;90.11;93214.81;5104488;27;20111;-60
2022/09/02 13:55:03;;;;;;;13.77;9.18;;;;;;;19.98;91.67;93212.22;5109514;28;20027;-60
2022/09/02 13:57:29;;;;;;;13.00;8.93;;;;;;;19.96;92.06;93204.44;5104639;28;20024;-59
2022/09/02 13:59:55;;;;;;;8.02;6.95;;;;;;;20.01;90.21;93197.00;5104626;28;20028;-59
2022/09/02 14:02:30;;;;;;;7.90;6.82;;;;;;;19.94;88.78;93195.19;5104295;28;20149;-58
2022/09/02 14:05:05;;;;;;;10.75;7.80;;;;;;;19.96;89.30;93190.44;5105233;28;20020;-59
2022/09/02 14:07:40;;;;;;;10.20;7.63;;;;;;;19.92;89.66;93186.69;5121890;28;20051;-59
2022/09/02 14:10:08;;;;;;;11.07;7.90;;;;;;;19.96;87.62;93170.81;5109958;28;20031;-59
2022/09/02 14:12:35;;;;;;;9.77;8.20;;;;;;;20.04;87.15;93167.72;5100788;28;20102;-60
2022/09/02 14:15:01;;;;;;;11.55;7.70;;;;;;;20.07;87.99;93169.28;5090065;28;20036;-60
2022/09/02 14:17:27;;;;;;;13.18;7.72;;;;;;;20.10;86.52;93160.38;5090098;28;20066;-59
2022/09/02 14:20:17;;;;;;;9.75;7.72;;;;;;;20.17;87.91;93164.22;5090741;28;20107;-60
2022/09/02 14:22:43;;;;;;;10.23;8.25;;;;;;;20.19;88.90;93170.69;5083991;28;20047;-59
2022/09/02 14:25:14;;;;;;;10.30;7.93;;;;;;;20.28;89.12;93192.22;5090413;28;20023;-60
2022/09/02 14:27:47;;;;;;;19.45;13.05;;;;;;;20.17;89.07;93195.78;5090306;28;20516;-60
2022/09/02 14:30:25;;;;;;;13.27;9.95;;;;;;;20.25;88.30;93196.25;5090741;28;20024;-60
2022/09/02 14:33:25;;;;;;;13.50;10.38;;;;;;;20.38;86.84;93189.22;5097118;28;20460;-60
2022/09/02 14:36:12;;;;;;;13.00;8.50;;;;;;;20.38;86.50;93200.44;5097001;28;20490;-60
2022/09/02 14:38:43;;;;;;;11.93;7.40;;;;;;;20.38;86.21;93203.25;5099039;28;20058;-59
2022/09/02 14:41:16;;;;;;;9.35;7.53;;;;;;;20.08;86.35;93198.75;5098882;28;20036;-59
2022/09/02 14:43:54;;;;;;;9.80;7.65;;;;;;;19.98;87.68;93201.75;5101083;28;20473;-59
2022/09/02 14:46:42;;;;;;;8.80;7.68;;;;;;;20.04;88.10;93209.75;5101792;28;20577;-60
2022/09/02 14:49:09;;;;;;;11.98;8.40;;;;;;;20.01;86.73;93213.81;5098963;28;20587;-60
2022/09/02 14:51:46;;;;;;;8.10;7.22;;;;;;;20.07;85.56;93205.72;5101340;28;20023;-60
2022/09/02 14:54:11;;;;;;;12.20;7.50;;;;;;;20.15;85.43;93225.78;5095567;28;20115;-60
2022/09/02 14:56:46;;;;;;;7.05;6.35;;;;;;;20.17;86.38;93243.44;5101100;28;20044;-60
2022/09/02 14:59:11;;;;;;;7.45;6.38;;;;;;;20.10;87.04;93240.91;5105005;28;20443;-60
2022/09/02 15:01:49;;;;;;;8.23;7.18;;;;;;;20.18;87.06;93253.31;5109423;28;20123;-60
2022/09/02 15:04:15;;;;;;;11.45;7.47;;;;;;;20.26;85.69;93251.00;5100970;28;20423;-60
2022/09/02 15:06:41;;;;;;;10.10;7.85;;;;;;;20.26;85.29;93265.00;5098737;28;20113;-60
2022/09/02 15:09:07;;;;;;;9.65;7.90;;;;;;;20.14;87.12;93263.59;5099775;28;20058;-60
2022/09/02 15:11:33;;;;;;;9.45;8.10;;;;;;;20.15;86.87;93259.44;5095534;28;20033;-60
2022/09/02 15:13:59;;;;;;;9.95;7.53;;;;;;;20.19;86.67;93266.00;5098239;28;20035;-60
2022/09/02 15:16:25;;;;;;;9.30;7.55;;;;;;;19.92;87.11;93229.44;5097419;28;20028;-60
2022/09/02 15:18:51;;;;;;;9.00;7.30;;;;;;;19.98;87.72;93241.00;5100423;28;20035;-60
2022/09/02 15:21:17;;;;;;;9.95;8.30;;;;;;;20.19;87.46;93268.78;5097339;28;20037;-60
2022/09/02 15:23:43;;;;;;;8.88;7.60;;;;;;;20.18;87.30;93266.63;5097436;28;20036;-60
2022/09/02 15:26:09;;;;;;;12.10;8.88;;;;;;;20.01;88.06;93272.66;5098965;28;20020;-59
2022/09/02 15:28:36;;;;;;;12.63;9.02;;;;;;;19.85;89.40;93269.66;5099402;28;20496;-59
2022/09/02 15:31:02;;;;;;;10.43;7.95;;;;;;;19.81;89.30;93266.63;5099702;28;20571;-59
2022/09/02 15:33:28;;;;;;;10.30;8.07;;;;;;;19.83;87.63;93252.00;5097441;28;20032;-59
2022/09/02 15:35:54;;;;;;;10.18;8.65;;;;;;;19.91;88.13;93263.66;5097019;28;20164;-53
2022/09/02 15:38:20;;;;;;;10.98;8.13;;;;;;;19.85;88.36;93252.13;5102516;28;20031;-56
2022/09/02 15:40:46;;;;;;;11.85;9.02;;;;;;;19.95;88.93;93263.88;5098549;28;20031;-60
2022/09/02 15:43:12;;;;;;;13.45;8.45;;;;;;;19.85;89.32;93266.13;5097385;28;20028;-60
2022/09/02 15:45:46;;;;;;;9.50;7.10;;;;;;;19.91;89.49;93280.47;5094126;28;20455;-60
2022/09/02 15:48:11;;;;;;;9.90;8.20;;;;;;;19.92;88.56;93265.88;5094152;28;20663;-59
2022/09/02 15:50:37;;;;;;;10.15;8.07;;;;;;;19.94;88.89;93279.25;5096903;28;20056;-59
2022/09/02 15:53:03;;;;;;;11.15;8.52;;;;;;;19.65;88.93;93263.63;5096802;28;20024;-59
2022/09/02 15:55:32;;;;;;;8.82;7.80;;;;;;;19.69;88.88;93277.13;5108799;28;20508;-60
2022/09/02 15:57:58;;;;;;;11.75;8.30;;;;;;;19.77;88.97;93279.69;5106692;28;20067;-58
2022/09/02 16:00:25;;;;;;;11.80;8.68;;;;;;;19.73;90.03;93274.56;5109579;28;20102;-59
2022/09/02 16:02:51;;;;;;;10.70;8.35;;;;;;;19.81;90.00;93272.25;5095051;28;20036;-61
2022/09/02 16:05:17;;;;;;;11.73;8.55;;;;;;;19.78;89.93;93256.66;5089577;28;20020;-60
2022/09/02 16:07:42;;;;;;;16.48;8.43;;;;;;;19.67;89.93;93254.63;5090291;28;20054;-59
2022/09/02 16:10:09;;;;;;;10.57;8.10;;;;;;;19.64;89.53;93248.16;5090685;28;20507;-55
2022/09/02 16:12:35;;;;;;;8.60;7.25;;;;;;;19.80;88.42;93265.16;5090310;28;20039;-61
2022/09/02 16:15:00;;;;;;;11.95;8.13;;;;;;;19.47;89.19;93223.38;5090729;28;20024;-58
2022/09/02 16:17:26;;;;;;;10.93;7.68;;;;;;;19.70;90.38;93261.06;5090214;28;20412;-59
2022/09/02 16:19:52;;;;;;;12.45;8.68;;;;;;;19.74;91.53;93266.91;5094672;28;20031;-60
2022/09/02 16:22:18;;;;;;;10.52;8.30;;;;;;;19.74;91.67;93259.22;5098847;28;20118;-60
2022/09/02 16:24:44;;;;;;;10.68;7.90;;;;;;;19.76;91.40;93250.94;5102009;28;20102;-59
2022/09/02 16:27:10;;;;;;;12.90;8.23;;;;;;;19.81;90.66;93265.91;5102823;28;20051;-60
2022/09/02 16:29:38;;;;;;;9.52;7.72;;;;;;;19.67;91.81;93249.00;5096971;28;20080;-57
2022/09/02 16:32:04;;;;;;;14.15;9.82;;;;;;;19.84;91.96;93270.28;5095279;28;20059;-57
2022/09/02 16:34:30;;;;;;;12.73;9.40;;;;;;;19.86;91.94;93268.31;5095684;28;20602;-60
2022/09/02 16:36:55;;;;;;;15.25;10.02;;;;;;;19.47;91.96;93214.97;5097252;28;20056;-60
2022/09/02 16:39:21;;;;;;;12.80;9.70;;;;;;;19.80;91.52;93261.63;5100109;28;20412;-56
2022/09/02 16:41:53;;;;;;;15.55;9.48;;;;;;;19.89;89.77;93267.09;5096518;28;20066;-58
2022/09/02 16:44:23;;;;;;;14.82;11.02;;;;;;;19.78;89.63;93255.91;5101603;28;20096;-59
2022/09/02 16:46:50;;;;;;;15.27;11.07;;;;;;;19.86;89.46;93268.31;5101207;27;20131;-57
2022/09/02 16:49:18;;;;;;;12.38;10.00;;;;;;;19.72;89.87;93253.50;5097396;28;20032;-57
2022/09/02 16:51:45;;;;;;;14.07;9.85;;;;;;;19.78;90.21;93267.13;5097493;28;20035;-59
2022/09/02 16:54:11;;;;;;;12.45;9.77;;;;;;;19.49;90.50;93231.88;5101059;28;20032;-59
2022/09/02 16:56:36;;;;;;;10.52;8.63;;;;;;;19.73;90.30;93260.56;5096679;28;20027;-59
2022/09/02 16:59:05;;;;;;;12.27;7.57;;;;;;;19.60;90.73;93256.34;5098408;28;20698;-59
2022/09/02 17:01:31;;;;;;;9.43;8.00;;;;;;;19.54;89.97;93233.59;5097807;28;20031;-59
2022/09/02 17:03:58;;;;;;;14.63;9.55;;;;;;;19.69;90.00;93254.72;5092164;28;20036;-59
2022/09/02 17:06:25;;;;;;;10.57;8.80;;;;;;;19.66;91.04;93259.47;5097243;28;20023;-59
2022/09/02 17:08:51;;;;;;;12.85;9.18;;;;;;;19.44;93.14;93266.63;5100647;28;20500;-59
2022/09/02 17:11:22;;;;;;;12.35;8.88;;;;;;;19.25;94.51;93264.03;5101821;28;20032;-58
2022/09/02 17:13:56;;;;;;;17.50;10.20;;;;;;;19.13;94.55;93260.53;5098019;28;20067;-59
2022/09/02 17:16:28;;;;;;;11.05;8.40;;;;;;;19.00;95.54;93260.41;5101218;28;20031;-56
2022/09/02 17:18:54;;;;;;;11.93;9.48;;;;;;;18.91;96.04;93256.41;5101842;28;20031;-58
2022/09/02 17:21:19;;;;;;;12.23;9.75;;;;;;;18.98;96.77;93272.22;5105670;28;20062;-58
2022/09/02 17:23:46;;;;;;;12.77;9.27;;;;;;;18.91;96.77;93259.94;5093287;28;20059;-58
2022/09/02 17:26:12;;;;;;;11.27;8.90;;;;;;;19.07;95.63;93267.84;5095625;28;20032;-57
2022/09/02 17:28:45;;;;;;;13.48;9.57;;;;;;;19.22;93.65;93275.75;5093593;28;20572;-57
2022/09/02 17:31:16;;;;;;;12.55;8.40;;;;;;;19.16;93.16;93273.31;5096848;28;20435;-63
2022/09/02 17:33:42;;;;;;;12.25;9.52;;;;;;;19.14;92.30;93275.25;5099969;28;20439;-58
2022/09/02 17:36:07;;;;;;;11.57;9.25;;;;;;;19.24;91.91;93287.78;5097798;28;20028;-56
2022/09/02 17:38:36;;;;;;;12.13;8.98;;;;;;;19.25;91.77;93286.44;5093115;28;20425;-58
2022/09/02 17:43:46;;;;;;;11.68;8.95;;;;;;;19.15;91.16;93282.31;5100320;28;20070;-61
2022/09/02 17:46:11;;;;;;;11.25;8.20;;;;;;;19.22;91.21;93293.28;5102200;28;20050;-57
2022/09/02 17:48:37;;;;;;;14.18;8.30;;;;;;;19.13;90.63;93285.00;5099453;28;20028;-65
2022/09/02 17:51:03;;;;;;;15.55;14.05;;;;;;;19.21;90.38;93297.41;5101984;28;20059;-61
2022/09/02 17:53:29;;;;;;;10.60;8.55;;;;;;;19.14;91.19;93292.78;5100092;28;20142;-56
2022/09/02 17:56:08;;;;;;;9.93;7.45;;;;;;;19.12;91.21;93301.06;5099218;28;20024;-55
2022/09/02 17:58:45;;;;;;;12.30;8.32;;;;;;;19.03;91.90;93298.38;5101994;28;20035;-59
2022/09/02 18:01:12;;;;;;;10.23;7.35;;;;;;;19.11;91.95;93318.44;5100236;28;20394;-60
2022/09/02 18:04:20;;;;;;;13.68;8.15;;;;;;;19.01;92.58;93310.19;5100032;28;20027;-61